YFC93 WSSL-WSSL
Flight info
| Callsign | YFC93 |
|---|---|
| Flight time | 0h 32m |
| Altitude | 8000 |
| Route | OMKOM DCT NYLON DCT WSSS DCT SJ DCT WSAP DCT RECHI |
| Aircraft | DA42/L-SBDGRY/S |
Departure
| Time | 2026-05-06 13:44 |
|---|---|
| Airport | Seletar Airport (WSSL) |
Arrival
| Time | 2026-05-06 14:17 |
|---|---|
| Airport | Seletar Airport (WSSL) |
| Time | Latitude | Longitude | Altitude | Speed | Heading |
|---|---|---|---|---|---|
| 2026-05-06 13:33 | 1.41647 | 103.86494 | 32 ft | 0 kts | 212° |
| 2026-05-06 13:41 | 1.41628 | 103.86482 | 32 ft | 9 kts | 215° |
| 2026-05-06 13:42 | 1.41578 | 103.86506 | 33 ft | 13 kts | 110° |
| 2026-05-06 13:42 | 1.41550 | 103.86558 | 33 ft | 0 kts | 123° |
| 2026-05-06 13:43 | 1.41546 | 103.86564 | 33 ft | 4 kts | 123° |
| 2026-05-06 13:43 | 1.41515 | 103.86610 | 34 ft | 11 kts | 121° |
| 2026-05-06 13:43 | 1.41537 | 103.86663 | 33 ft | 0 kts | 32° |
| 2026-05-06 13:43 | 1.41641 | 103.86731 | 30 ft | 50 kts | 33° |
| 2026-05-06 13:44 | 1.42057 | 103.86998 | 140 ft | 78 kts | 32° |
| 2026-05-06 13:44 | 1.42523 | 103.87254 | 412 ft | 76 kts | 27° |
| 2026-05-06 13:44 | 1.42999 | 103.87522 | 627 ft | 81 kts | 31° |
| 2026-05-06 13:44 | 1.43517 | 103.87637 | 861 ft | 81 kts | 342° |
| 2026-05-06 13:45 | 1.43892 | 103.87219 | 1072 ft | 81 kts | 281° |
| 2026-05-06 13:45 | 1.43280 | 103.86353 | 1496 ft | 91 kts | 223° |
| 2026-05-06 13:45 | 1.42760 | 103.85882 | 1558 ft | 108 kts | 219° |
| 2026-05-06 13:46 | 1.42140 | 103.85367 | 1513 ft | 126 kts | 218° |
| 2026-05-06 13:46 | 1.41454 | 103.84819 | 1549 ft | 130 kts | 217° |
| 2026-05-06 13:46 | 1.40733 | 103.84275 | 1587 ft | 130 kts | 216° |
| 2026-05-06 13:46 | 1.39991 | 103.83735 | 1571 ft | 124 kts | 215° |
| 2026-05-06 13:47 | 1.39337 | 103.83244 | 1522 ft | 113 kts | 216° |
| 2026-05-06 13:47 | 1.38909 | 103.82659 | 1707 ft | 103 kts | 255° |
| 2026-05-06 13:47 | 1.38784 | 103.81998 | 2034 ft | 90 kts | 257° |
| 2026-05-06 13:47 | 1.38679 | 103.81426 | 2379 ft | 77 kts | 256° |
| 2026-05-06 13:48 | 1.38567 | 103.80886 | 2602 ft | 82 kts | 254° |
| 2026-05-06 13:48 | 1.38445 | 103.80330 | 2830 ft | 81 kts | 254° |
| 2026-05-06 13:48 | 1.38323 | 103.79715 | 2864 ft | 102 kts | 258° |
| 2026-05-06 13:48 | 1.38216 | 103.78988 | 3002 ft | 109 kts | 259° |
| 2026-05-06 13:49 | 1.38116 | 103.78226 | 3195 ft | 109 kts | 261° |
| 2026-05-06 13:49 | 1.38341 | 103.77516 | 3341 ft | 112 kts | 301° |
| 2026-05-06 13:49 | 1.38903 | 103.76948 | 3441 ft | 121 kts | 323° |
| 2026-05-06 13:49 | 1.39714 | 103.76660 | 3553 ft | 126 kts | 348° |
| 2026-05-06 13:50 | 1.40544 | 103.76537 | 3713 ft | 125 kts | 352° |
| 2026-05-06 13:50 | 1.41371 | 103.76587 | 3804 ft | 118 kts | 65° |
| 2026-05-06 13:50 | 1.41164 | 103.77262 | 4070 ft | 102 kts | 137° |
| 2026-05-06 13:50 | 1.40618 | 103.77606 | 4426 ft | 86 kts | 152° |
| 2026-05-06 13:51 | 1.40120 | 103.77875 | 4758 ft | 82 kts | 153° |
| 2026-05-06 13:51 | 1.39635 | 103.78140 | 5049 ft | 74 kts | 150° |
| 2026-05-06 13:51 | 1.39139 | 103.78440 | 5216 ft | 89 kts | 149° |
| 2026-05-06 13:51 | 1.38620 | 103.78858 | 5335 ft | 104 kts | 137° |
| 2026-05-06 13:52 | 1.38055 | 103.79395 | 5376 ft | 119 kts | 139° |
| 2026-05-06 13:52 | 1.37489 | 103.80003 | 5476 ft | 124 kts | 116° |
| 2026-05-06 13:52 | 1.37597 | 103.80845 | 5504 ft | 131 kts | 52° |
| 2026-05-06 13:52 | 1.38267 | 103.81432 | 5541 ft | 128 kts | 38° |
| 2026-05-06 13:53 | 1.39013 | 103.81937 | 5519 ft | 131 kts | 32° |
| 2026-05-06 13:53 | 1.39828 | 103.82334 | 5517 ft | 131 kts | 21° |
| 2026-05-06 13:53 | 1.40677 | 103.82656 | 5492 ft | 127 kts | 20° |
| 2026-05-06 13:53 | 1.41479 | 103.82952 | 5423 ft | 120 kts | 21° |
| 2026-05-06 13:54 | 1.41996 | 103.83141 | 5384 ft | 117 kts | 13° |
| 2026-05-06 13:54 | 1.42663 | 103.82847 | 5407 ft | 110 kts | 297° |
| 2026-05-06 13:54 | 1.42954 | 103.82145 | 5381 ft | 108 kts | 290° |
| 2026-05-06 13:54 | 1.43250 | 103.81473 | 5402 ft | 103 kts | 292° |
| 2026-05-06 13:55 | 1.43540 | 103.80814 | 5391 ft | 103 kts | 292° |
| 2026-05-06 13:55 | 1.43837 | 103.80159 | 5396 ft | 111 kts | 293° |
| 2026-05-06 13:55 | 1.44114 | 103.79442 | 5471 ft | 107 kts | 271° |
| 2026-05-06 13:55 | 1.43810 | 103.78745 | 5421 ft | 114 kts | 236° |
| 2026-05-06 13:56 | 1.43384 | 103.78056 | 5401 ft | 118 kts | 237° |
| 2026-05-06 13:56 | 1.42966 | 103.77351 | 5416 ft | 118 kts | 239° |
| 2026-05-06 13:56 | 1.42313 | 103.77200 | 5384 ft | 118 kts | 161° |
| 2026-05-06 13:56 | 1.41547 | 103.77470 | 5480 ft | 115 kts | 161° |
| 2026-05-06 13:57 | 1.40789 | 103.77736 | 5484 ft | 113 kts | 161° |
| 2026-05-06 13:57 | 1.40038 | 103.77981 | 5490 ft | 113 kts | 165° |
| 2026-05-06 13:57 | 1.39275 | 103.78175 | 5477 ft | 113 kts | 167° |
| 2026-05-06 13:57 | 1.38539 | 103.78358 | 5502 ft | 103 kts | 166° |
| 2026-05-06 13:58 | 1.37856 | 103.78544 | 5446 ft | 101 kts | 166° |
| 2026-05-06 13:58 | 1.37208 | 103.78790 | 5393 ft | 100 kts | 131° |
| 2026-05-06 13:58 | 1.37196 | 103.79441 | 5324 ft | 99 kts | 79° |
| 2026-05-06 13:58 | 1.37326 | 103.80089 | 5277 ft | 94 kts | 82° |
| 2026-05-06 13:59 | 1.37454 | 103.80708 | 5263 ft | 86 kts | 79° |
| 2026-05-06 13:59 | 1.37629 | 103.81296 | 5487 ft | 89 kts | 73° |
| 2026-05-06 13:59 | 1.37858 | 103.81820 | 5816 ft | 79 kts | 51° |
| 2026-05-06 13:59 | 1.38371 | 103.81991 | 6059 ft | 81 kts | 356° |
| 2026-05-06 14:00 | 1.38999 | 103.81967 | 6126 ft | 96 kts | 359° |
| 2026-05-06 14:00 | 1.39670 | 103.81929 | 6199 ft | 97 kts | 353° |
| 2026-05-06 14:00 | 1.40373 | 103.81846 | 6197 ft | 102 kts | 354° |
| 2026-05-06 14:00 | 1.41082 | 103.81772 | 6205 ft | 102 kts | 354° |
| 2026-05-06 14:01 | 1.41725 | 103.81680 | 6135 ft | 89 kts | 333° |
| 2026-05-06 14:01 | 1.41945 | 103.81172 | 5913 ft | 87 kts | 259° |
| 2026-05-06 14:01 | 1.41870 | 103.80591 | 5759 ft | 83 kts | 261° |
| 2026-05-06 14:01 | 1.41819 | 103.80016 | 5584 ft | 84 kts | 263° |
| 2026-05-06 14:02 | 1.41762 | 103.79426 | 5384 ft | 85 kts | 261° |
| 2026-05-06 14:02 | 1.41675 | 103.78870 | 5244 ft | 82 kts | 255° |
| 2026-05-06 14:02 | 1.41362 | 103.78456 | 5050 ft | 80 kts | 199° |
| 2026-05-06 14:02 | 1.40851 | 103.78217 | 4836 ft | 84 kts | 220° |
| 2026-05-06 14:03 | 1.40537 | 103.77742 | 4692 ft | 83 kts | 232° |
| 2026-05-06 14:03 | 1.40088 | 103.77430 | 4528 ft | 79 kts | 194° |
| 2026-05-06 14:03 | 1.39537 | 103.77286 | 4323 ft | 83 kts | 195° |
| 2026-05-06 14:03 | 1.39006 | 103.77182 | 4209 ft | 76 kts | 173° |
| 2026-05-06 14:04 | 1.38487 | 103.77291 | 4062 ft | 74 kts | 169° |
| 2026-05-06 14:04 | 1.37976 | 103.77401 | 3892 ft | 76 kts | 169° |
| 2026-05-06 14:04 | 1.37517 | 103.77644 | 3713 ft | 79 kts | 125° |
| 2026-05-06 14:04 | 1.37496 | 103.78180 | 3562 ft | 82 kts | 75° |
| 2026-05-06 14:05 | 1.37718 | 103.78707 | 3416 ft | 81 kts | 66° |
| 2026-05-06 14:05 | 1.37982 | 103.79213 | 3319 ft | 86 kts | 66° |
| 2026-05-06 14:05 | 1.38283 | 103.79739 | 3220 ft | 91 kts | 62° |
| 2026-05-06 14:05 | 1.38612 | 103.80333 | 3036 ft | 106 kts | 64° |
| 2026-05-06 14:06 | 1.38904 | 103.81023 | 2881 ft | 109 kts | 71° |
| 2026-05-06 14:06 | 1.39156 | 103.81740 | 2758 ft | 107 kts | 74° |
| 2026-05-06 14:06 | 1.39356 | 103.82473 | 2571 ft | 111 kts | 79° |
| 2026-05-06 14:06 | 1.39515 | 103.83211 | 2469 ft | 107 kts | 80° |
| 2026-05-06 14:07 | 1.39634 | 103.83956 | 2301 ft | 109 kts | 85° |
| 2026-05-06 14:07 | 1.39713 | 103.84705 | 2116 ft | 109 kts | 88° |
| 2026-05-06 14:07 | 1.39777 | 103.85459 | 2023 ft | 113 kts | 83° |
| 2026-05-06 14:07 | 1.40114 | 103.86135 | 2063 ft | 110 kts | 42° |
| 2026-05-06 14:08 | 1.40721 | 103.86589 | 2043 ft | 109 kts | 36° |
| 2026-05-06 14:08 | 1.41376 | 103.87016 | 1862 ft | 115 kts | 32° |
| 2026-05-06 14:08 | 1.42058 | 103.87440 | 1699 ft | 115 kts | 32° |
| 2026-05-06 14:08 | 1.42782 | 103.87628 | 1609 ft | 111 kts | 344° |
| 2026-05-06 14:09 | 1.43384 | 103.87200 | 1550 ft | 103 kts | 317° |
| 2026-05-06 14:09 | 1.43507 | 103.86570 | 1359 ft | 108 kts | 238° |
| 2026-05-06 14:09 | 1.42928 | 103.86066 | 1111 ft | 112 kts | 216° |
| 2026-05-06 14:09 | 1.42334 | 103.85623 | 904 ft | 100 kts | 214° |
| 2026-05-06 14:10 | 1.41795 | 103.85241 | 936 ft | 91 kts | 213° |
| 2026-05-06 14:10 | 1.41221 | 103.84932 | 884 ft | 96 kts | 194° |
| 2026-05-06 14:10 | 1.40609 | 103.85120 | 792 ft | 96 kts | 127° |
| 2026-05-06 14:10 | 1.40391 | 103.85748 | 623 ft | 104 kts | 77° |
| 2026-05-06 14:11 | 1.40963 | 103.86286 | 137 ft | 125 kts | 31° |
| 2026-05-06 14:11 | 1.41603 | 103.86705 | 31 ft | 95 kts | 32° |
| 2026-05-06 14:11 | 1.42105 | 103.87031 | 26 ft | 85 kts | 33° |
| 2026-05-06 14:11 | 1.42605 | 103.87345 | 323 ft | 83 kts | 29° |
| 2026-05-06 14:12 | 1.43121 | 103.87602 | 614 ft | 77 kts | 20° |
| 2026-05-06 14:12 | 1.43670 | 103.87624 | 790 ft | 86 kts | 328° |
| 2026-05-06 14:12 | 1.44100 | 103.87172 | 972 ft | 91 kts | 293° |
| 2026-05-06 14:12 | 1.43860 | 103.86677 | 939 ft | 100 kts | 208° |
| 2026-05-06 14:13 | 1.43250 | 103.86306 | 945 ft | 102 kts | 212° |
| 2026-05-06 14:13 | 1.42699 | 103.85956 | 994 ft | 89 kts | 213° |
| 2026-05-06 14:13 | 1.42183 | 103.85606 | 984 ft | 94 kts | 213° |
| 2026-05-06 14:13 | 1.41643 | 103.85214 | 967 ft | 98 kts | 214° |
| 2026-05-06 14:14 | 1.41098 | 103.84823 | 1032 ft | 93 kts | 214° |
| 2026-05-06 14:14 | 1.40520 | 103.84435 | 1095 ft | 107 kts | 213° |
| 2026-05-06 14:14 | 1.39918 | 103.84040 | 1218 ft | 100 kts | 211° |
| 2026-05-06 14:14 | 1.39337 | 103.83665 | 1315 ft | 99 kts | 211° |
| 2026-05-06 14:15 | 1.38733 | 103.83314 | 1394 ft | 98 kts | 206° |
| 2026-05-06 14:15 | 1.38190 | 103.83529 | 1371 ft | 105 kts | 104° |
| 2026-05-06 14:15 | 1.38361 | 103.84213 | 1166 ft | 106 kts | 61° |
| 2026-05-06 14:15 | 1.38838 | 103.84711 | 1012 ft | 94 kts | 40° |
| 2026-05-06 14:16 | 1.39355 | 103.85124 | 789 ft | 90 kts | 40° |
| 2026-05-06 14:16 | 1.39814 | 103.85481 | 644 ft | 82 kts | 36° |
| 2026-05-06 14:16 | 1.40276 | 103.85820 | 429 ft | 82 kts | 38° |
| 2026-05-06 14:16 | 1.40748 | 103.86147 | 185 ft | 82 kts | 34° |
| 2026-05-06 14:17 | 1.41216 | 103.86449 | 42 ft | 76 kts | 33° |
| 2026-05-06 14:17 | 1.41618 | 103.86717 | 30 ft | 62 kts | 32° |
| 2026-05-06 14:17 | 1.41928 | 103.86918 | 24 ft | 44 kts | 33° |
| 2026-05-06 14:17 | 1.42179 | 103.87082 | 21 ft | 38 kts | 37° |
| 2026-05-06 14:18 | 1.42266 | 103.87098 | 20 ft | 10 kts | 267° |
| 2026-05-06 14:18 | 1.42303 | 103.87025 | 19 ft | 11 kts | 304° |
| 2026-05-06 14:18 | 1.42279 | 103.86959 | 20 ft | 14 kts | 213° |
| 2026-05-06 14:18 | 1.42191 | 103.86901 | 21 ft | 16 kts | 213° |
| 2026-05-06 14:19 | 1.42092 | 103.86837 | 23 ft | 18 kts | 212° |
| 2026-05-06 14:19 | 1.41984 | 103.86766 | 25 ft | 19 kts | 214° |
| 2026-05-06 14:19 | 1.41871 | 103.86692 | 27 ft | 20 kts | 211° |
| 2026-05-06 14:19 | 1.41790 | 103.86641 | 29 ft | 13 kts | 216° |
| 2026-05-06 14:20 | 1.41706 | 103.86583 | 30 ft | 16 kts | 217° |
| 2026-05-06 14:20 | 1.41609 | 103.86521 | 32 ft | 17 kts | 212° |
| 2026-05-06 14:20 | 1.41617 | 103.86443 | 33 ft | 11 kts | 338° |
| 2026-05-06 14:20 | 1.41634 | 103.86487 | 32 ft | 0 kts | 122° |